createdAt,value
2019-01-17T00:00:44.972Z,4.83
2019-01-17T00:03:36.052Z,4.83
2019-01-17T00:06:23.394Z,4.83
2019-01-17T00:09:14.537Z,4.85
2019-01-17T00:12:08.757Z,4.86
2019-01-17T00:15:02.949Z,4.86
2019-01-17T00:18:00.296Z,4.88
2019-01-17T00:20:47.287Z,4.86
2019-01-17T00:23:44.885Z,4.71
2019-01-17T00:26:31.764Z,4.59
2019-01-17T00:29:20.270Z,4.56
2019-01-17T00:32:08.353Z,4.49
2019-01-17T00:34:44.346Z,4.44
2019-01-17T00:37:36.420Z,4.39
2019-01-17T00:40:27.930Z,4.32
2019-01-17T00:43:18.869Z,4.32
2019-01-17T00:46:06.998Z,4.29
2019-01-17T00:48:55.116Z,4.26
2019-01-17T00:51:41.919Z,4.22
2019-01-17T00:54:32.813Z,4.22
2019-01-17T00:57:20.252Z,4.19
2019-01-17T01:00:18.021Z,4.18
2019-01-17T01:03:06.537Z,4.15
2019-01-17T01:05:53.581Z,4.09
2019-01-17T01:08:40.362Z,4.12
2019-01-17T01:11:21.741Z,4.09
2019-01-17T01:14:08.418Z,4.10
2019-01-17T01:17:04.552Z,4.06
2019-01-17T01:19:51.087Z,4.06
2019-01-17T01:22:51.175Z,4.05
2019-01-17T01:25:36.627Z,4.03
2019-01-17T01:28:23.169Z,4.02
2019-01-17T01:31:09.496Z,4.02
2019-01-17T01:33:49.710Z,4.02
2019-01-17T01:36:36.586Z,4.00
2019-01-17T01:39:36.607Z,4.01
2019-01-17T01:42:30.434Z,3.97
2019-01-17T01:45:18.316Z,3.96
2019-01-17T01:48:03.074Z,3.93
2019-01-17T01:50:50.604Z,3.92
2019-01-17T01:53:19.749Z,3.89
2019-01-17T01:55:48.981Z,3.92
2019-01-17T01:58:18.212Z,3.92
2019-01-17T02:00:47.381Z,3.92
2019-01-17T02:03:16.501Z,3.96
2019-01-17T02:05:45.666Z,3.91
2019-01-17T02:08:14.797Z,3.87
2019-01-17T02:10:44.019Z,3.89
2019-01-17T02:13:13.181Z,3.93
2019-01-17T02:15:42.442Z,3.99
2019-01-17T02:18:11.672Z,4.00
2019-01-17T02:20:41.354Z,4.03
2019-01-17T02:23:10.549Z,4.03
2019-01-17T02:25:39.704Z,4.05
2019-01-17T02:28:08.838Z,4.05
2019-01-17T02:30:38.012Z,4.06
2019-01-17T02:33:07.258Z,4.06
2019-01-17T02:35:36.532Z,4.10
2019-01-17T02:38:05.701Z,4.09
2019-01-17T02:40:34.911Z,4.08
2019-01-17T02:43:04.081Z,4.05
2019-01-17T02:45:33.313Z,4.02
2019-01-17T02:48:02.449Z,4.00
2019-01-17T02:50:32.752Z,4.00
2019-01-17T02:53:01.907Z,3.99
2019-01-17T02:55:31.059Z,3.97
2019-01-17T02:58:00.279Z,3.98
2019-01-17T03:00:29.491Z,3.98
2019-01-17T03:02:58.660Z,4.01
2019-01-17T03:05:27.825Z,4.02
2019-01-17T03:07:56.952Z,4.01
2019-01-17T03:10:26.444Z,4.00
2019-01-17T03:12:55.573Z,3.98
2019-01-17T03:15:24.693Z,3.98
2019-01-17T03:17:53.876Z,4.01
2019-01-17T03:20:23.333Z,4.07
2019-01-17T03:22:52.601Z,4.08
2019-01-17T03:25:21.787Z,4.09
2019-01-17T03:27:50.941Z,4.06
2019-01-17T03:30:23.005Z,4.06
2019-01-17T03:32:52.138Z,4.08
2019-01-17T03:35:21.293Z,4.08
2019-01-17T03:37:50.552Z,4.06
2019-01-17T03:40:21.865Z,4.07
2019-01-17T03:42:51.059Z,4.09
2019-01-17T03:45:20.197Z,4.06
2019-01-17T03:47:49.323Z,4.02
2019-01-17T03:50:21.268Z,4.00
2019-01-17T03:52:50.438Z,3.99
2019-01-17T03:55:22.441Z,4.01
2019-01-17T03:57:51.591Z,4.00
2019-01-17T04:00:22.698Z,4.02
2019-01-17T04:02:51.825Z,4.01
2019-01-17T04:05:20.941Z,3.99
2019-01-17T04:07:50.060Z,4.00
2019-01-17T04:10:19.290Z,3.98
2019-01-17T04:12:48.390Z,3.97
2019-01-17T04:15:17.620Z,3.96
2019-01-17T04:17:46.797Z,3.94
2019-01-17T04:20:17.784Z,3.94
2019-01-17T04:22:47.140Z,3.93
2019-01-17T04:25:16.555Z,3.93
2019-01-17T04:27:45.703Z,3.95
2019-01-17T04:30:19.105Z,3.98
2019-01-17T04:32:48.459Z,4.01
2019-01-17T04:35:17.627Z,4.04
2019-01-17T04:37:46.778Z,4.03
2019-01-17T04:40:20.593Z,4.09
2019-01-17T04:42:50.121Z,4.13
2019-01-17T04:45:19.361Z,4.16
2019-01-17T04:47:48.488Z,4.16
2019-01-17T04:50:20.060Z,4.16
2019-01-17T04:52:49.389Z,4.19
2019-01-17T04:55:18.591Z,4.18
2019-01-17T04:57:47.734Z,4.14
2019-01-17T05:00:19.149Z,4.16
2019-01-17T05:02:48.897Z,4.20
2019-01-17T05:05:18.490Z,4.23
2019-01-17T05:07:47.621Z,4.21
2019-01-17T05:10:20.501Z,4.18
2019-01-17T05:12:49.660Z,4.14
2019-01-17T05:15:18.825Z,4.13
2019-01-17T05:17:47.940Z,4.20
2019-01-17T05:20:17.649Z,4.23
2019-01-17T05:22:46.980Z,4.19
2019-01-17T05:25:16.125Z,4.15
2019-01-17T05:27:45.331Z,4.08
2019-01-17T05:30:21.957Z,4.07
2019-01-17T05:32:51.080Z,4.08
2019-01-17T05:35:20.223Z,4.07
2019-01-17T05:37:49.472Z,4.10
2019-01-17T05:40:20.129Z,4.10
2019-01-17T05:42:49.278Z,4.08
2019-01-17T05:45:18.811Z,4.00
2019-01-17T05:47:47.990Z,3.92
2019-01-17T05:50:23.253Z,3.85
2019-01-17T05:52:52.373Z,3.81
2019-01-17T05:55:21.500Z,3.82
2019-01-17T05:57:50.697Z,3.85
2019-01-17T06:00:22.804Z,3.89
2019-01-17T06:02:52.244Z,3.89
2019-01-17T06:05:21.421Z,3.86
2019-01-17T06:07:50.586Z,3.76
2019-01-17T06:10:22.656Z,3.78
2019-01-17T06:12:53.068Z,3.72
2019-01-17T06:15:23.478Z,3.70
2019-01-17T06:17:52.637Z,3.70
2019-01-17T06:20:21.935Z,3.73
2019-01-17T06:22:51.070Z,3.68
2019-01-17T06:25:27.820Z,3.61
2019-01-17T06:27:51.488Z,3.62
2019-01-17T06:30:22.636Z,3.65
2019-01-17T06:32:51.756Z,3.63
2019-01-17T06:35:20.909Z,3.66
2019-01-17T06:37:50.071Z,3.70
2019-01-17T06:40:28.007Z,3.76
2019-01-17T06:42:57.182Z,3.75
2019-01-17T06:45:26.397Z,3.86
2019-01-17T06:47:55.518Z,3.97
2019-01-17T06:50:24.702Z,4.03
2019-01-17T06:52:53.830Z,3.99
2019-01-17T06:55:22.973Z,3.93
2019-01-17T06:57:52.133Z,3.99
2019-01-17T07:00:21.496Z,4.04
2019-01-17T07:02:50.627Z,4.03
2019-01-17T07:05:20.281Z,3.97
2019-01-17T07:07:49.401Z,4.03
2019-01-17T07:10:18.781Z,4.04
2019-01-17T07:12:47.918Z,4.04
2019-01-17T07:15:17.045Z,4.00
2019-01-17T07:17:46.212Z,3.98
2019-01-17T07:20:16.103Z,3.92
2019-01-17T07:22:45.254Z,3.94
2019-01-17T07:25:14.419Z,3.92
2019-01-17T07:27:43.570Z,4.00
2019-01-17T07:30:19.514Z,4.01
2019-01-17T07:32:48.865Z,3.99
2019-01-17T07:35:18.473Z,3.99
2019-01-17T07:37:47.835Z,3.98
2019-01-17T07:40:20.036Z,4.06
2019-01-17T07:42:49.272Z,4.02
2019-01-17T07:45:24.132Z,3.99
2019-01-17T07:47:53.290Z,3.96
2019-01-17T07:50:22.448Z,3.94
2019-01-17T07:52:51.686Z,3.94
2019-01-17T07:55:20.857Z,3.96
2019-01-17T07:57:49.990Z,3.96
2019-01-17T08:00:21.892Z,3.96
2019-01-17T08:02:51.204Z,3.97
2019-01-17T08:05:20.651Z,3.94
2019-01-17T08:07:50.039Z,3.93
2019-01-17T08:10:26.520Z,3.95
2019-01-17T08:12:55.779Z,3.95
2019-01-17T08:15:24.959Z,4.03
2019-01-17T08:17:54.092Z,4.08
2019-01-17T08:20:24.397Z,4.15
2019-01-17T08:22:53.728Z,4.21
2019-01-17T08:25:22.895Z,4.26
2019-01-17T08:27:52.027Z,4.31
2019-01-17T08:30:24.197Z,4.39
2019-01-17T08:32:53.329Z,4.45
2019-01-17T08:35:22.481Z,4.51
2019-01-17T08:37:51.734Z,4.48
2019-01-17T08:40:26.887Z,4.46
2019-01-17T08:42:56.124Z,4.42
2019-01-17T08:45:25.319Z,4.36
2019-01-17T08:47:54.593Z,4.35
2019-01-17T08:50:23.953Z,4.28
2019-01-17T08:52:53.120Z,4.25
2019-01-17T08:55:22.284Z,4.22
2019-01-17T08:57:51.491Z,4.24
2019-01-17T09:00:28.789Z,4.15
2019-01-17T09:02:58.035Z,4.09
2019-01-17T09:05:27.184Z,4.05
2019-01-17T09:07:56.428Z,4.03
2019-01-17T09:10:28.036Z,4.04
2019-01-17T09:12:57.369Z,4.02
2019-01-17T09:15:29.420Z,4.03
2019-01-17T09:17:58.656Z,3.99
2019-01-17T09:20:27.917Z,3.98
2019-01-17T09:22:57.119Z,4.00
2019-01-17T09:25:26.370Z,4.02
2019-01-17T09:27:55.514Z,4.04
2019-01-17T09:30:24.916Z,4.04
2019-01-17T09:32:54.040Z,4.01
2019-01-17T09:35:23.231Z,3.98
2019-01-17T09:37:52.334Z,3.90
2019-01-17T09:40:22.281Z,3.85
2019-01-17T09:42:51.669Z,3.76
2019-01-17T09:45:21.130Z,3.75
2019-01-17T09:47:50.314Z,3.74
2019-01-17T09:50:21.735Z,3.77
2019-01-17T09:52:51.087Z,3.80
2019-01-17T09:55:20.366Z,3.82
2019-01-17T09:57:49.806Z,3.81
2019-01-17T10:00:27.171Z,3.81
2019-01-17T10:02:56.346Z,3.82
2019-01-17T10:05:25.484Z,3.79
2019-01-17T10:07:54.967Z,3.78
2019-01-17T10:10:24.527Z,3.72
2019-01-17T10:12:53.683Z,3.70
2019-01-17T10:15:49.671Z,3.67
2019-01-17T10:19:12.351Z,3.68
2019-01-17T10:22:29.870Z,3.67
2019-01-17T10:25:40.200Z,3.61
2019-01-17T10:29:11.750Z,3.58
2019-01-17T10:31:55.361Z,3.56
2019-01-17T10:34:34.241Z,3.55
2019-01-17T10:37:24.538Z,3.56
2019-01-17T10:40:28.881Z,3.54
2019-01-17T10:43:38.646Z,3.50
2019-01-17T10:46:51.244Z,3.43
2019-01-17T10:49:52.132Z,3.40
2019-01-17T10:52:53.199Z,3.45
2019-01-17T10:56:02.554Z,3.36
2019-01-17T10:58:41.431Z,3.38
2019-01-17T11:01:37.899Z,3.36
2019-01-17T11:04:51.221Z,3.35
2019-01-17T11:07:44.711Z,3.40
2019-01-17T11:10:48.988Z,3.49
2019-01-17T11:13:58.969Z,3.50
2019-01-17T11:17:30.175Z,3.57
2019-01-17T11:20:29.078Z,3.64
2019-01-17T11:23:41.763Z,3.62
2019-01-17T11:26:56.048Z,3.65
2019-01-17T11:29:55.813Z,3.59
2019-01-17T11:33:06.454Z,3.50
2019-01-17T11:36:03.309Z,3.58
2019-01-17T11:39:14.989Z,3.50
2019-01-17T11:42:09.213Z,3.52
2019-01-17T11:45:01.789Z,3.50
2019-01-17T11:48:07.852Z,3.50
2019-01-17T11:51:12.194Z,3.51
2019-01-17T11:54:43.661Z,3.45
2019-01-17T11:57:48.526Z,3.52
2019-01-17T12:00:41.820Z,3.48
2019-01-17T12:03:35.026Z,3.57
2019-01-17T12:06:04.225Z,3.70
2019-01-17T12:08:33.383Z,3.73
2019-01-17T12:11:02.518Z,3.69
2019-01-17T12:13:31.662Z,3.74
2019-01-17T12:16:00.783Z,3.80
2019-01-17T12:18:29.959Z,3.85
2019-01-17T12:20:59.150Z,3.85
2019-01-17T12:23:28.288Z,3.88
2019-01-17T12:25:57.714Z,3.86
2019-01-17T12:28:26.877Z,3.85
2019-01-17T12:30:56.023Z,3.75
2019-01-17T12:33:25.294Z,3.76
2019-01-17T12:35:54.417Z,3.77
2019-01-17T12:38:23.778Z,3.83
2019-01-17T12:40:52.942Z,3.81
2019-01-17T12:43:22.106Z,3.80
2019-01-17T12:45:51.266Z,3.77
2019-01-17T12:48:20.481Z,3.73
2019-01-17T12:50:49.680Z,3.72
2019-01-17T12:53:18.898Z,3.71
2019-01-17T12:55:48.065Z,3.70
2019-01-17T12:58:17.190Z,3.65
2019-01-17T13:00:46.346Z,3.64
2019-01-17T13:03:15.681Z,3.69
2019-01-17T13:05:44.932Z,3.69
2019-01-17T13:08:14.166Z,3.68
2019-01-17T13:10:43.463Z,3.80
2019-01-17T13:13:12.628Z,3.77
2019-01-17T13:15:42.140Z,3.72
2019-01-17T13:18:11.278Z,3.74
2019-01-17T13:20:41.641Z,3.80
2019-01-17T13:23:10.793Z,3.79
2019-01-17T13:25:40.029Z,3.79
2019-01-17T13:28:09.147Z,3.84
2019-01-17T13:30:38.401Z,3.93
2019-01-17T13:33:07.562Z,3.95
2019-01-17T13:35:37.070Z,3.92
2019-01-17T13:38:06.342Z,3.89
2019-01-17T13:40:35.684Z,4.06
2019-01-17T13:43:05.174Z,4.18
2019-01-17T13:45:34.421Z,4.64
2019-01-17T13:48:03.661Z,5.01
2019-01-17T13:50:32.964Z,5.33
2019-01-17T13:53:02.676Z,5.66
2019-01-17T13:55:31.929Z,5.95
2019-01-17T13:58:02.195Z,5.49
2019-01-17T14:00:31.418Z,2.96
2019-01-17T14:03:00.587Z,2.23
2019-01-17T14:05:29.747Z,1.91
2019-01-17T14:07:58.870Z,1.89
2019-01-17T14:10:28.046Z,1.80
2019-01-17T14:12:57.211Z,1.73
2019-01-17T14:15:28.354Z,1.70
2019-01-17T14:17:57.494Z,1.78
2019-01-17T14:20:26.646Z,1.78
2019-01-17T14:22:55.760Z,1.71
2019-01-17T14:25:24.919Z,1.85
2019-01-17T14:27:54.079Z,1.89
2019-01-17T14:30:29.006Z,1.85
2019-01-17T14:32:58.392Z,1.96
2019-01-17T14:35:27.519Z,2.03
2019-01-17T14:37:56.651Z,2.06
2019-01-17T14:40:26.214Z,2.11
2019-01-17T14:42:55.392Z,2.13
2019-01-17T14:45:25.049Z,2.21
2019-01-17T14:47:54.275Z,2.36
2019-01-17T14:50:25.990Z,2.43
2019-01-17T14:52:55.324Z,2.60
2019-01-17T14:55:24.667Z,2.53
2019-01-17T14:57:53.832Z,2.51
2019-01-17T15:00:26.712Z,2.40
2019-01-17T15:02:55.877Z,2.41
2019-01-17T15:05:25.318Z,2.37
2019-01-17T15:07:54.548Z,2.40
2019-01-17T15:10:35.632Z,2.31
2019-01-17T15:13:05.031Z,2.24
2019-01-17T15:15:34.216Z,2.25
2019-01-17T15:18:04.026Z,2.18
2019-01-17T15:20:33.226Z,2.18
2019-01-17T15:23:04.083Z,2.13
2019-01-17T15:25:33.338Z,2.07
2019-01-17T15:28:02.470Z,2.05
2019-01-17T15:30:32.602Z,2.03
2019-01-17T15:33:03.315Z,2.04
2019-01-17T15:35:32.560Z,1.97
2019-01-17T15:38:02.327Z,1.97
2019-01-17T15:40:32.278Z,1.93
2019-01-17T15:43:02.005Z,1.90
2019-01-17T15:45:31.277Z,1.86
2019-01-17T15:48:00.510Z,1.88
2019-01-17T15:50:29.692Z,1.87
2019-01-17T15:52:58.966Z,1.84
2019-01-17T15:55:28.166Z,1.77
2019-01-17T15:57:57.519Z,1.78
2019-01-17T16:00:29.006Z,1.73
2019-01-17T16:02:58.234Z,1.76
2019-01-17T16:05:28.336Z,1.74
2019-01-17T16:07:57.481Z,1.80
2019-01-17T16:10:26.677Z,1.84
2019-01-17T16:12:56.728Z,1.85
2019-01-17T16:15:27.525Z,1.85
2019-01-17T16:17:56.690Z,1.92
2019-01-17T16:20:25.825Z,1.95
2019-01-17T16:22:55.073Z,1.95
2019-01-17T16:25:24.270Z,1.95
2019-01-17T16:27:53.459Z,1.94
2019-01-17T16:30:25.646Z,1.96
2019-01-17T16:32:55.842Z,1.98
2019-01-17T16:35:25.201Z,2.00
2019-01-17T16:37:54.446Z,2.00
2019-01-17T16:40:23.923Z,2.08
2019-01-17T16:42:53.101Z,2.06
2019-01-17T16:45:23.065Z,2.03
2019-01-17T16:47:52.188Z,1.98
2019-01-17T16:50:23.778Z,1.90
2019-01-17T16:52:52.957Z,1.80
2019-01-17T16:55:22.091Z,1.79
2019-01-17T16:57:51.293Z,1.72
2019-01-17T17:00:29.695Z,1.72
2019-01-17T17:02:58.820Z,1.65
2019-01-17T17:05:28.040Z,1.61
2019-01-17T17:07:57.232Z,1.53
2019-01-17T17:10:26.449Z,1.51
2019-01-17T17:12:55.612Z,1.47
2019-01-17T17:15:24.778Z,1.44
2019-01-17T17:17:53.952Z,1.43
2019-01-17T17:20:23.492Z,1.40
2019-01-17T17:22:52.649Z,1.36
2019-01-17T17:25:21.880Z,1.38
2019-01-17T17:27:55.529Z,1.36
2019-01-17T17:30:26.393Z,1.38
2019-01-17T17:32:55.504Z,1.30
2019-01-17T17:35:24.677Z,1.30
2019-01-17T17:37:53.867Z,1.28
2019-01-17T17:40:28.222Z,1.28
2019-01-17T17:42:57.666Z,1.28
2019-01-17T17:45:28.398Z,1.19
2019-01-17T17:47:59.458Z,1.14
2019-01-17T17:50:31.087Z,1.17
2019-01-17T17:53:00.365Z,1.10
2019-01-17T17:55:29.615Z,1.10
2019-01-17T17:58:02.243Z,1.15
2019-01-17T18:00:55.032Z,1.16
2019-01-17T18:03:24.352Z,1.08
2019-01-17T18:05:53.487Z,1.02
2019-01-17T18:08:22.651Z,0.98
2019-01-17T18:10:51.966Z,0.99
2019-01-17T18:13:21.160Z,1.05
2019-01-17T18:15:50.516Z,1.03
2019-01-17T18:18:19.891Z,0.94
2019-01-17T18:20:49.186Z,0.88
2019-01-17T18:23:18.382Z,0.87
2019-01-17T18:25:47.953Z,0.95
2019-01-17T18:28:17.364Z,0.92
2019-01-17T18:30:46.576Z,0.87
2019-01-17T18:33:16.052Z,0.80
2019-01-17T18:35:45.141Z,0.70
2019-01-17T18:38:14.415Z,0.69
2019-01-17T18:40:43.556Z,0.67
2019-01-17T18:43:12.933Z,0.68
2019-01-17T18:45:42.585Z,0.62
2019-01-17T18:48:12.023Z,0.60
2019-01-17T18:50:41.232Z,0.54
2019-01-17T18:53:10.413Z,0.57
2019-01-17T18:55:39.617Z,0.61
2019-01-17T18:58:15.364Z,0.63
2019-01-17T19:00:42.470Z,0.71
2019-01-17T19:03:11.876Z,0.70
2019-01-17T19:05:42.663Z,0.75
2019-01-17T19:08:11.892Z,0.66
2019-01-17T19:10:41.692Z,0.61
2019-01-17T19:13:10.956Z,0.59
2019-01-17T19:15:40.181Z,0.56
2019-01-17T19:18:09.454Z,0.58
2019-01-17T19:20:39.094Z,0.56
2019-01-17T19:23:08.764Z,0.59
2019-01-17T19:25:38.650Z,0.51
2019-01-17T19:28:10.162Z,0.50
2019-01-17T19:30:39.477Z,0.45
2019-01-17T19:33:08.922Z,0.45
2019-01-17T19:35:38.113Z,0.56
2019-01-17T19:38:07.313Z,0.57
2019-01-17T19:40:37.310Z,0.58
2019-01-17T19:43:06.963Z,0.56
2019-01-17T19:45:37.077Z,0.61
2019-01-17T19:48:06.303Z,0.67
2019-01-17T19:50:38.082Z,0.69
2019-01-17T19:53:08.617Z,0.76
2019-01-17T19:55:39.059Z,0.82
2019-01-17T19:58:09.622Z,0.84
2019-01-17T20:00:41.671Z,0.81
2019-01-17T20:03:11.043Z,0.82
2019-01-17T20:05:40.511Z,0.84
2019-01-17T20:08:09.892Z,0.91
2019-01-17T20:10:39.168Z,0.71
2019-01-17T20:13:08.606Z,0.63
2019-01-17T20:15:38.048Z,0.45
2019-01-17T20:18:07.576Z,0.44
2019-01-17T20:20:37.386Z,0.45
2019-01-17T20:23:07.144Z,0.44
2019-01-17T20:25:38.156Z,0.49
2019-01-17T20:28:07.382Z,0.47
2019-01-17T20:30:36.964Z,0.47
2019-01-17T20:33:07.931Z,0.45
2019-01-17T20:35:37.189Z,0.38
2019-01-17T20:38:08.175Z,0.33
2019-01-17T20:40:39.775Z,0.29
2019-01-17T20:43:09.061Z,0.29
2019-01-17T20:45:38.808Z,0.28
2019-01-17T20:48:07.999Z,0.23
2019-01-17T20:50:37.319Z,0.23
2019-01-17T20:53:07.052Z,0.19
2019-01-17T20:55:36.379Z,0.17
2019-01-17T20:58:05.826Z,0.18
2019-01-17T21:00:59.310Z,0.18
